Time;durP1;ratioP1;P1;durP2;ratioP2;P2;SDS_P1;SDS_P2;PMS_P1;PMS_P2;Temp;Humidity;BMP_temperature;BMP_pressure;BME280_temperature;BME280_humidity;BME280_pressure;Samples;Min_cycle;Max_cycle;Signal;HPM_P1;HPM_P2
2021/12/15 00:02:12;;;;;;;3.00;2.73;;;;;;;;;;5075508;28;20202;-72
2021/12/15 00:04:39;;;;;;;1.33;1.03;;;;;;;;;;5072835;28;20198;-71
2021/12/15 00:07:07;;;;;;;2.13;1.93;;;;;;;;;;5070690;28;20871;-72
2021/12/15 00:09:34;;;;;;;0.53;0.53;;;;;;;;;;5076075;28;20203;-72
2021/12/15 00:12:04;;;;;;;1.10;1.03;;;;;;;;;;5071728;28;20194;-71
2021/12/15 00:14:33;;;;;;;3.53;2.33;;;;;;;;;;5071768;28;20210;-74
2021/12/15 00:17:01;;;;;;;1.53;1.43;;;;;;;;;;5073160;28;20285;-72
2021/12/15 00:19:28;;;;;;;1.07;1.07;;;;;;;;;;5076355;28;20268;-72
2021/12/15 00:21:56;;;;;;;6.93;3.83;;;;;;;;;;5075289;28;20198;-70
2021/12/15 00:24:24;;;;;;;1.50;1.40;;;;;;;;;;5074315;28;21840;-71
2021/12/15 00:26:52;;;;;;;2.20;2.00;;;;;;;;;;5073834;28;20230;-71
2021/12/15 00:29:21;;;;;;;4.20;2.77;;;;;;;;;;5072707;28;20647;-68
2021/12/15 00:31:48;;;;;;;1.30;1.07;;;;;;;;;;5073747;28;20202;-71
2021/12/15 00:34:16;;;;;;;1.00;0.87;;;;;;;;;;5073274;28;20731;-72
2021/12/15 00:36:44;;;;;;;0.80;0.80;;;;;;;;;;5076038;28;20647;-73
2021/12/15 00:39:14;;;;;;;1.30;1.23;;;;;;;;;;5074503;28;20203;-70
2021/12/15 00:41:41;;;;;;;8.33;5.37;;;;;;;;;;5070870;28;20206;-72
2021/12/15 00:44:10;;;;;;;2.60;2.07;;;;;;;;;;5075359;28;20210;-71
2021/12/15 00:46:39;;;;;;;10.83;5.07;;;;;;;;;;5073033;28;20218;-72
2021/12/15 00:49:07;;;;;;;0.73;0.73;;;;;;;;;;5074815;28;20616;-73
2021/12/15 00:51:34;;;;;;;4.03;2.47;;;;;;;;;;5072302;28;20647;-72
2021/12/15 00:54:02;;;;;;;3.03;1.83;;;;;;;;;;5077938;28;20655;-71
2021/12/15 00:56:29;;;;;;;0.30;0.30;;;;;;;;;;5074334;28;20226;-70
2021/12/15 00:58:56;;;;;;;1.53;1.13;;;;;;;;;;5087221;28;20210;-72
2021/12/15 01:01:26;;;;;;;0.97;0.83;;;;;;;;;;5093422;28;20226;-72
2021/12/15 01:03:55;;;;;;;0.20;0.20;;;;;;;;;;5089674;28;20199;-68
2021/12/15 01:06:23;;;;;;;4.13;3.80;;;;;;;;;;5073134;28;20211;-71
2021/12/15 01:08:55;;;;;;;2.97;2.70;;;;;;;;;;5074984;28;20289;-73
2021/12/15 01:11:29;;;;;;;2.47;2.37;;;;;;;;;;5075212;28;20209;-71
2021/12/15 01:19:50;;;;;;;1.47;1.37;;;;;;;;;;5050238;28;20267;-69
2021/12/15 01:22:20;;;;;;;1.20;1.20;;;;;;;;;;5070515;28;20210;-70
2021/12/15 01:24:48;;;;;;;0.53;0.33;;;;;;;;;;5074559;28;20203;-73
2021/12/15 01:27:19;;;;;;;0.00;0.00;;;;;;;;;;5073091;28;20510;-72
2021/12/15 01:29:46;;;;;;;2.43;1.50;;;;;;;;;;5068604;28;20205;-71
2021/12/15 01:32:14;;;;;;;2.80;2.17;;;;;;;;;;5073374;28;20785;-72
2021/12/15 01:34:43;;;;;;;3.10;2.30;;;;;;;;;;5073044;28;20207;-69
2021/12/15 01:37:12;;;;;;;3.83;3.47;;;;;;;;;;5074728;28;20226;-72
2021/12/15 01:39:40;;;;;;;3.77;2.33;;;;;;;;;;5074633;28;20213;-70
2021/12/15 01:42:07;;;;;;;0.27;0.27;;;;;;;;;;5072898;28;20230;-73
2021/12/15 01:47:20;;;;;;;0.17;0.17;;;;;;;;;;5070986;28;20272;-72
2021/12/15 01:49:51;;;;;;;4.37;1.80;;;;;;;;;;5074222;28;20213;-71
2021/12/15 01:52:20;;;;;;;1.33;1.23;;;;;;;;;;5080777;28;20206;-70
2021/12/15 01:54:50;;;;;;;5.20;1.20;;;;;;;;;;5072536;28;20746;-69
2021/12/15 01:57:18;;;;;;;0.73;0.73;;;;;;;;;;5075179;28;20198;-67
2021/12/15 01:59:47;;;;;;;1.70;0.77;;;;;;;;;;5070974;28;20225;-70
2021/12/15 02:02:15;;;;;;;1.33;1.23;;;;;;;;;;5072218;28;20214;-72
2021/12/15 02:04:42;;;;;;;2.00;0.37;;;;;;;;;;5078375;28;20217;-71
2021/12/15 02:07:15;;;;;;;2.30;1.83;;;;;;;;;;5081609;28;21253;-69
2021/12/15 02:10:01;;;;;;;1.77;1.50;;;;;;;;;;5071198;28;20210;-72
2021/12/15 02:12:33;;;;;;;2.13;1.60;;;;;;;;;;5074836;28;21150;-71
2021/12/15 02:15:01;;;;;;;1.43;1.33;;;;;;;;;;5074163;28;20206;-66
2021/12/15 02:17:28;;;;;;;3.40;3.20;;;;;;;;;;5074133;28;20194;-72
2021/12/15 02:19:56;;;;;;;1.70;1.60;;;;;;;;;;5075868;28;20205;-72
2021/12/15 02:22:27;;;;;;;0.47;0.30;;;;;;;;;;5078482;28;20578;-70
2021/12/15 02:24:55;;;;;;;0.53;0.53;;;;;;;;;;5072795;28;20222;-70
2021/12/15 02:27:28;;;;;;;0.20;0.20;;;;;;;;;;5074681;28;20313;-73
2021/12/15 02:30:02;;;;;;;0.33;0.33;;;;;;;;;;5075986;28;20564;-72
2021/12/15 02:32:40;;;;;;;3.13;1.87;;;;;;;;;;5077338;28;20255;-72
2021/12/15 02:37:54;;;;;;;3.47;2.70;;;;;;;;;;5075820;28;20257;-73
2021/12/15 02:40:21;;;;;;;3.27;2.67;;;;;;;;;;5076360;28;20206;-72
2021/12/15 02:42:49;;;;;;;1.10;1.03;;;;;;;;;;5072176;28;20194;-70
2021/12/15 02:45:18;;;;;;;0.00;0.00;;;;;;;;;;5078739;28;20213;-72
2021/12/15 02:47:46;;;;;;;1.27;0.10;;;;;;;;;;5077949;28;20226;-73
2021/12/15 02:50:15;;;;;;;1.70;0.97;;;;;;;;;;5075058;28;20213;-71
2021/12/15 02:52:43;;;;;;;3.97;3.77;;;;;;;;;;5075689;28;20198;-72
2021/12/15 02:55:12;;;;;;;2.37;1.40;;;;;;;;;;5073008;28;20210;-71
2021/12/15 02:57:40;;;;;;;0.10;0.10;;;;;;;;;;5075457;28;20206;-72
2021/12/15 03:00:18;;;;;;;2.13;1.27;;;;;;;;;;5073459;28;20226;-69
2021/12/15 03:03:28;;;;;;;0.40;0.10;;;;;;;;;;5075495;28;20195;-74
2021/12/15 03:06:03;;;;;;;0.53;0.53;;;;;;;;;;5077129;28;20194;-71
2021/12/15 03:08:49;;;;;;;2.17;1.33;;;;;;;;;;5077602;28;20266;-70
2021/12/15 03:17:03;;;;;;;1.87;1.80;;;;;;;;;;5014143;28;20204;-72
2021/12/15 03:19:30;;;;;;;0.30;0.30;;;;;;;;;;5011843;28;20216;-71
2021/12/15 03:21:58;;;;;;;0.70;0.47;;;;;;;;;;5008355;28;20201;-72
2021/12/15 03:24:28;;;;;;;3.33;1.83;;;;;;;;;;5010589;28;20308;-72
2021/12/15 03:27:03;;;;;;;1.83;1.63;;;;;;;;;;5009312;28;20666;-72
2021/12/15 03:35:21;;;;;;;1.70;1.07;;;;;;;;;;5010958;28;20212;-72
2021/12/15 03:37:50;;;;;;;1.30;0.63;;;;;;;;;;5012566;28;20203;-72
2021/12/15 03:40:19;;;;;;;1.57;1.47;;;;;;;;;;5009139;28;20622;-72
2021/12/15 03:42:50;;;;;;;6.47;4.30;;;;;;;;;;5009411;28;20208;-72
2021/12/15 03:45:20;;;;;;;5.60;3.90;;;;;;;;;;5009764;28;20284;-69
2021/12/15 03:47:49;;;;;;;1.43;1.33;;;;;;;;;;5036777;28;20248;-71
2021/12/15 03:50:18;;;;;;;2.47;0.93;;;;;;;;;;5073462;28;20199;-72
2021/12/15 03:52:48;;;;;;;1.60;1.50;;;;;;;;;;5073937;28;20194;-73
2021/12/15 03:55:16;;;;;;;9.33;5.10;;;;;;;;;;5076365;28;20194;-71
2021/12/15 03:57:43;;;;;;;0.50;0.50;;;;;;;;;;5076284;28;20209;-71
2021/12/15 04:00:14;;;;;;;3.90;2.50;;;;;;;;;;5073385;28;20233;-73
2021/12/15 04:02:44;;;;;;;0.97;0.93;;;;;;;;;;5071741;28;20671;-71
2021/12/15 04:05:13;;;;;;;0.77;0.77;;;;;;;;;;5079376;28;20257;-71
2021/12/15 04:07:41;;;;;;;3.00;2.80;;;;;;;;;;5076545;28;20238;-71
2021/12/15 04:10:10;;;;;;;3.70;1.27;;;;;;;;;;5072564;28;20230;-73
2021/12/15 04:12:37;;;;;;;1.27;1.17;;;;;;;;;;5075947;28;20223;-71
2021/12/15 04:15:20;;;;;;;0.87;0.87;;;;;;;;;;5076255;28;20198;-70
2021/12/15 04:17:50;;;;;;;0.73;0.50;;;;;;;;;;5076811;28;20245;-71
2021/12/15 04:20:19;;;;;;;0.00;0.00;;;;;;;;;;5073484;28;20197;-71
2021/12/15 04:22:47;;;;;;;1.43;1.43;;;;;;;;;;5074569;28;20202;-70
2021/12/15 04:25:15;;;;;;;0.00;0.00;;;;;;;;;;5078677;28;20579;-70
2021/12/15 04:27:52;;;;;;;0.17;0.17;;;;;;;;;;5075230;28;20229;-72
2021/12/15 04:30:19;;;;;;;0.10;0.10;;;;;;;;;;5074864;28;20200;-70
2021/12/15 04:32:49;;;;;;;2.90;2.70;;;;;;;;;;5073836;28;20325;-72
2021/12/15 04:35:18;;;;;;;0.00;0.00;;;;;;;;;;5070253;28;20226;-71
2021/12/15 04:37:46;;;;;;;0.47;0.47;;;;;;;;;;5070686;28;20252;-72
2021/12/15 04:40:15;;;;;;;0.80;0.80;;;;;;;;;;5075299;28;20539;-69
2021/12/15 04:42:44;;;;;;;3.87;1.63;;;;;;;;;;5074041;28;20668;-71
2021/12/15 04:45:12;;;;;;;1.07;0.67;;;;;;;;;;5077545;28;20202;-70
2021/12/15 04:47:40;;;;;;;8.87;5.03;;;;;;;;;;5072099;28;20225;-70
2021/12/15 04:50:09;;;;;;;6.23;3.40;;;;;;;;;;5075554;28;20221;-70
2021/12/15 04:52:38;;;;;;;0.30;0.30;;;;;;;;;;5074580;28;20690;-73
2021/12/15 04:55:07;;;;;;;0.00;0.00;;;;;;;;;;5072744;28;20251;-72
2021/12/15 04:57:36;;;;;;;2.53;2.27;;;;;;;;;;5074038;28;20663;-71
2021/12/15 05:00:05;;;;;;;1.43;1.43;;;;;;;;;;5074312;28;20717;-72
2021/12/15 05:02:33;;;;;;;3.83;2.50;;;;;;;;;;5073665;28;20198;-73
2021/12/15 05:05:00;;;;;;;0.40;0.40;;;;;;;;;;5082149;28;20229;-71
2021/12/15 05:07:28;;;;;;;0.43;0.43;;;;;;;;;;5078971;28;20202;-71
2021/12/15 05:09:57;;;;;;;0.23;0.23;;;;;;;;;;5076352;28;21498;-71
2021/12/15 05:12:24;;;;;;;3.50;1.37;;;;;;;;;;5075411;28;20222;-71
2021/12/15 05:14:51;;;;;;;0.13;0.13;;;;;;;;;;5077479;28;20231;-70
2021/12/15 05:17:19;;;;;;;1.27;1.27;;;;;;;;;;5077763;28;20700;-70
2021/12/15 05:19:47;;;;;;;0.00;0.00;;;;;;;;;;5077724;28;20195;-73
2021/12/15 05:22:15;;;;;;;0.00;0.00;;;;;;;;;;5075212;28;20205;-73
2021/12/15 05:24:42;;;;;;;1.97;1.87;;;;;;;;;;5077791;28;20198;-71
2021/12/15 05:27:13;;;;;;;1.57;1.47;;;;;;;;;;5076680;28;20256;-72
2021/12/15 05:29:41;;;;;;;1.87;1.67;;;;;;;;;;5075031;28;20226;-73
2021/12/15 05:32:09;;;;;;;0.13;0.13;;;;;;;;;;5079537;28;20194;-72
2021/12/15 05:34:37;;;;;;;0.97;0.83;;;;;;;;;;5076944;28;20195;-71
2021/12/15 05:37:05;;;;;;;0.33;0.30;;;;;;;;;;5074713;28;20198;-73
2021/12/15 05:39:33;;;;;;;1.17;0.67;;;;;;;;;;5077505;28;20797;-72
2021/12/15 05:42:00;;;;;;;0.20;0.20;;;;;;;;;;5075469;28;20488;-71
2021/12/15 05:44:29;;;;;;;0.00;0.00;;;;;;;;;;5077128;28;20199;-71
2021/12/15 05:46:57;;;;;;;0.00;0.00;;;;;;;;;;5077624;28;20221;-72
2021/12/15 05:49:25;;;;;;;0.10;0.10;;;;;;;;;;5080285;28;20222;-72
2021/12/15 05:51:52;;;;;;;0.77;0.77;;;;;;;;;;5075127;28;20686;-72
2021/12/15 05:54:20;;;;;;;3.37;3.07;;;;;;;;;;5077315;28;20253;-71
2021/12/15 05:56:48;;;;;;;0.13;0.13;;;;;;;;;;5078500;28;20209;-73
2021/12/15 05:59:16;;;;;;;0.53;0.53;;;;;;;;;;5077949;28;20198;-72
2021/12/15 06:01:46;;;;;;;2.63;1.70;;;;;;;;;;5078026;28;20221;-71
2021/12/15 06:04:13;;;;;;;0.53;0.53;;;;;;;;;;5080740;28;20674;-72
2021/12/15 06:06:41;;;;;;;0.00;0.00;;;;;;;;;;5078336;28;20217;-69
2021/12/15 06:09:09;;;;;;;0.10;0.10;;;;;;;;;;5076927;28;20237;-72
2021/12/15 06:11:37;;;;;;;0.97;0.83;;;;;;;;;;5075166;28;20248;-70
2021/12/15 06:14:05;;;;;;;0.83;0.83;;;;;;;;;;5076622;28;20206;-71
2021/12/15 06:16:33;;;;;;;1.07;0.97;;;;;;;;;;5076331;28;20216;-70
2021/12/15 06:19:03;;;;;;;2.47;1.00;;;;;;;;;;5076820;28;20199;-72
2021/12/15 06:21:31;;;;;;;3.13;2.83;;;;;;;;;;5077049;28;20195;-72
2021/12/15 06:23:59;;;;;;;0.73;0.73;;;;;;;;;;5074885;28;20202;-68
2021/12/15 06:26:26;;;;;;;0.20;0.20;;;;;;;;;;5075085;28;20588;-72
2021/12/15 06:28:54;;;;;;;0.37;0.37;;;;;;;;;;5073881;28;20230;-72
2021/12/15 06:31:21;;;;;;;2.00;0.97;;;;;;;;;;5077250;28;20217;-71
2021/12/15 06:33:48;;;;;;;0.57;0.57;;;;;;;;;;5074950;28;20670;-70
2021/12/15 06:36:20;;;;;;;0.73;0.73;;;;;;;;;;5074461;28;20260;-72
2021/12/15 06:38:48;;;;;;;1.27;1.27;;;;;;;;;;5074191;28;20210;-71
2021/12/15 06:41:16;;;;;;;0.10;0.10;;;;;;;;;;5076019;28;20206;-72
2021/12/15 06:43:47;;;;;;;0.93;0.93;;;;;;;;;;5074623;28;20221;-72
2021/12/15 06:46:37;;;;;;;1.80;1.40;;;;;;;;;;5076103;28;20238;-72
2021/12/15 07:00:11;;;;;;;0.90;0.90;;;;;;;;;;5059862;28;20234;-72
2021/12/15 07:02:40;;;;;;;1.10;1.10;;;;;;;;;;5077836;28;20199;-70
2021/12/15 07:05:08;;;;;;;3.23;2.93;;;;;;;;;;5073376;28;20199;-73
2021/12/15 07:07:36;;;;;;;1.40;1.30;;;;;;;;;;5074655;28;20221;-71
2021/12/15 07:10:04;;;;;;;1.83;1.53;;;;;;;;;;5076389;28;20717;-72
2021/12/15 07:12:31;;;;;;;1.50;1.00;;;;;;;;;;5075595;28;20221;-72
2021/12/15 07:14:59;;;;;;;3.77;1.33;;;;;;;;;;5070403;28;20202;-71
2021/12/15 07:17:28;;;;;;;2.57;2.10;;;;;;;;;;5077699;28;20220;-74
2021/12/15 07:20:29;;;;;;;0.57;0.57;;;;;;;;;;5075359;28;20206;-72
2021/12/15 07:22:56;;;;;;;1.40;1.30;;;;;;;;;;5074661;28;20199;-74
2021/12/15 07:25:24;;;;;;;0.00;0.00;;;;;;;;;;5075043;28;20187;-73
2021/12/15 07:27:52;;;;;;;0.33;0.33;;;;;;;;;;5076870;28;20202;-74
2021/12/15 07:30:20;;;;;;;1.20;1.20;;;;;;;;;;5086003;28;20230;-72
2021/12/15 07:32:47;;;;;;;1.20;1.17;;;;;;;;;;5090296;28;20198;-71
2021/12/15 07:35:15;;;;;;;1.80;1.70;;;;;;;;;;5087648;28;20252;-75
2021/12/15 07:37:43;;;;;;;2.90;2.27;;;;;;;;;;5083220;28;20213;-73
2021/12/15 07:40:18;;;;;;;1.30;0.87;;;;;;;;;;5076922;28;21347;-71
2021/12/15 07:42:56;;;;;;;4.53;3.33;;;;;;;;;;5081090;28;20218;-71
2021/12/15 07:45:24;;;;;;;0.57;0.57;;;;;;;;;;5073922;28;20252;-74
2021/12/15 07:47:52;;;;;;;0.23;0.23;;;;;;;;;;5078091;28;22192;-72
2021/12/15 07:50:20;;;;;;;2.90;1.23;;;;;;;;;;5078566;28;20232;-74
2021/12/15 07:52:47;;;;;;;1.10;0.87;;;;;;;;;;5077042;28;21040;-73
2021/12/15 07:55:17;;;;;;;0.50;0.50;;;;;;;;;;5075278;28;20251;-69
2021/12/15 07:57:44;;;;;;;2.30;1.70;;;;;;;;;;5077083;28;20203;-73
2021/12/15 08:00:13;;;;;;;2.47;2.27;;;;;;;;;;5077610;28;20241;-73
2021/12/15 08:02:40;;;;;;;2.57;2.00;;;;;;;;;;5077898;28;20202;-72
2021/12/15 08:05:08;;;;;;;0.87;0.87;;;;;;;;;;5076532;28;20236;-72
2021/12/15 08:07:36;;;;;;;4.37;3.20;;;;;;;;;;5078680;28;20209;-72
2021/12/15 08:10:06;;;;;;;0.57;0.57;;;;;;;;;;5076573;28;20229;-69
2021/12/15 08:12:35;;;;;;;1.20;0.87;;;;;;;;;;5077584;28;21283;-72
2021/12/15 08:15:03;;;;;;;2.57;1.93;;;;;;;;;;5077450;28;21339;-72
2021/12/15 08:17:30;;;;;;;11.70;4.37;;;;;;;;;;5078264;28;20186;-74
2021/12/15 08:19:57;;;;;;;2.83;1.60;;;;;;;;;;5076255;28;20549;-71
2021/12/15 08:22:25;;;;;;;0.00;0.00;;;;;;;;;;5075449;28;20478;-67
2021/12/15 08:24:52;;;;;;;1.27;0.97;;;;;;;;;;5074107;28;20738;-73
2021/12/15 08:27:19;;;;;;;0.40;0.40;;;;;;;;;;5066721;28;20911;-73
2021/12/15 08:29:48;;;;;;;0.07;0.07;;;;;;;;;;5064128;28;20298;-73
2021/12/15 08:32:16;;;;;;;1.13;1.03;;;;;;;;;;5068629;28;20198;-76
2021/12/15 08:34:43;;;;;;;0.73;0.60;;;;;;;;;;5066961;28;20216;-73
2021/12/15 08:37:13;;;;;;;0.13;0.07;;;;;;;;;;5070034;28;21175;-75
2021/12/15 08:39:41;;;;;;;0.10;0.10;;;;;;;;;;5075523;28;22293;-72
2021/12/15 08:42:09;;;;;;;2.03;0.83;;;;;;;;;;5075027;28;20207;-73
2021/12/15 08:44:36;;;;;;;0.30;0.30;;;;;;;;;;5081386;28;20213;-72
2021/12/15 08:47:06;;;;;;;5.33;1.80;;;;;;;;;;5072023;28;20675;-73
2021/12/15 08:49:34;;;;;;;2.43;1.93;;;;;;;;;;5074872;28;20221;-75
2021/12/15 08:52:02;;;;;;;1.03;0.13;;;;;;;;;;5069952;28;20210;-72
2021/12/15 08:54:29;;;;;;;2.80;2.20;;;;;;;;;;5080970;28;20216;-72
2021/12/15 08:56:57;;;;;;;2.60;2.40;;;;;;;;;;5080355;28;20672;-73
2021/12/15 08:59:24;;;;;;;1.03;0.30;;;;;;;;;;5076773;28;20206;-75
2021/12/15 09:01:52;;;;;;;3.37;2.30;;;;;;;;;;5075224;28;20229;-75
2021/12/15 09:04:22;;;;;;;0.40;0.40;;;;;;;;;;5066680;28;20199;-71
2021/12/15 09:06:49;;;;;;;0.00;0.00;;;;;;;;;;5067460;28;20217;-72
2021/12/15 09:09:20;;;;;;;0.87;0.80;;;;;;;;;;5070403;28;20268;-71
2021/12/15 09:11:47;;;;;;;3.37;1.90;;;;;;;;;;5069614;28;20209;-70
2021/12/15 09:14:15;;;;;;;0.73;0.73;;;;;;;;;;5069694;28;22424;-76
2021/12/15 09:16:43;;;;;;;0.63;0.63;;;;;;;;;;5067290;28;20244;-74
2021/12/15 09:19:11;;;;;;;0.57;0.57;;;;;;;;;;5067157;28;21326;-71
2021/12/15 09:21:42;;;;;;;0.47;0.47;;;;;;;;;;5067195;28;20207;-72
2021/12/15 09:24:10;;;;;;;1.30;0.40;;;;;;;;;;5067109;28;20535;-70
2021/12/15 09:26:37;;;;;;;0.00;0.00;;;;;;;;;;5065892;28;20903;-72
2021/12/15 09:29:06;;;;;;;0.00;0.00;;;;;;;;;;5071008;28;20222;-74
2021/12/15 09:31:34;;;;;;;1.70;0.73;;;;;;;;;;5082117;28;20202;-72
2021/12/15 09:34:03;;;;;;;1.33;0.60;;;;;;;;;;5075835;28;20203;-71
2021/12/15 09:36:31;;;;;;;1.33;1.23;;;;;;;;;;5077674;28;20199;-76
2021/12/15 09:39:02;;;;;;;1.90;1.80;;;;;;;;;;5073925;28;20202;-72
2021/12/15 09:41:29;;;;;;;3.17;1.43;;;;;;;;;;5079286;28;20601;-69
2021/12/15 09:44:03;;;;;;;0.90;0.90;;;;;;;;;;5078943;28;20210;-75
2021/12/15 09:46:37;;;;;;;0.77;0.77;;;;;;;;;;5090248;28;20204;-76
2021/12/15 09:57:27;;;;;;;0.93;0.93;;;;;;;;;;5076903;28;20209;-74
2021/12/15 10:02:49;;;;;;;0.20;0.20;;;;;;;;;;5078395;28;20197;-75
2021/12/15 10:05:31;;;;;;;2.50;1.67;;;;;;;;;;5073676;28;20293;-76
2021/12/15 10:10:59;;;;;;;0.93;0.93;;;;;;;;;;5077237;28;20664;-73
2021/12/15 10:19:20;;;;;;;0.50;0.50;;;;;;;;;;5075507;28;20291;-77
2021/12/15 10:22:03;;;;;;;0.37;0.37;;;;;;;;;;5078246;28;20213;-73
2021/12/15 10:24:33;;;;;;;0.20;0.20;;;;;;;;;;5074522;28;20199;-75
2021/12/15 10:27:05;;;;;;;0.30;0.30;;;;;;;;;;5074902;28;20277;-76
2021/12/15 10:29:32;;;;;;;0.00;0.00;;;;;;;;;;5077550;28;20833;-76
2021/12/15 10:32:01;;;;;;;5.20;0.97;;;;;;;;;;5082974;28;20210;-75
2021/12/15 10:34:30;;;;;;;0.83;0.60;;;;;;;;;;5094919;28;20229;-76
2021/12/15 10:36:57;;;;;;;0.13;0.13;;;;;;;;;;5090309;28;20234;-77
2021/12/15 10:39:26;;;;;;;0.47;0.47;;;;;;;;;;5084583;28;20298;-76
2021/12/15 10:41:55;;;;;;;1.23;1.13;;;;;;;;;;5081904;28;20210;-71
2021/12/15 10:44:25;;;;;;;0.40;0.40;;;;;;;;;;5079323;28;20198;-75
2021/12/15 10:46:53;;;;;;;2.00;1.73;;;;;;;;;;5081260;28;20202;-70
2021/12/15 10:49:22;;;;;;;0.60;0.60;;;;;;;;;;5087847;28;20230;-71
2021/12/15 10:51:50;;;;;;;0.73;0.73;;;;;;;;;;5080911;28;20251;-73
2021/12/15 10:54:19;;;;;;;0.10;0.10;;;;;;;;;;5088958;28;20203;-73
2021/12/15 10:56:51;;;;;;;1.07;1.07;;;;;;;;;;5080608;28;20604;-74
2021/12/15 10:59:19;;;;;;;1.37;1.07;;;;;;;;;;5082504;28;20207;-75
2021/12/15 11:01:50;;;;;;;1.20;1.00;;;;;;;;;;5092783;28;20237;-75
2021/12/15 11:04:29;;;;;;;0.70;0.70;;;;;;;;;;5087195;28;20202;-75
2021/12/15 11:07:17;;;;;;;0.63;0.40;;;;;;;;;;5079412;28;20198;-75
2021/12/15 11:09:47;;;;;;;0.70;0.70;;;;;;;;;;5085111;28;20226;-76
2021/12/15 11:12:16;;;;;;;0.97;0.93;;;;;;;;;;5082467;28;20207;-75
2021/12/15 11:14:45;;;;;;;1.23;1.23;;;;;;;;;;5079651;28;20206;-75
2021/12/15 11:17:16;;;;;;;0.50;0.50;;;;;;;;;;5077707;28;20680;-74
2021/12/15 11:19:52;;;;;;;1.60;0.93;;;;;;;;;;5082253;28;20206;-74
2021/12/15 11:22:33;;;;;;;2.03;0.73;;;;;;;;;;5080397;28;20247;-76
2021/12/15 11:25:01;;;;;;;0.00;0.00;;;;;;;;;;5080668;28;20203;-76
2021/12/15 11:27:28;;;;;;;1.03;0.93;;;;;;;;;;5078170;28;20573;-75
2021/12/15 11:29:56;;;;;;;0.07;0.07;;;;;;;;;;5078187;28;20224;-75
2021/12/15 11:32:45;;;;;;;1.70;1.60;;;;;;;;;;5079572;28;20205;-75
2021/12/15 11:35:17;;;;;;;0.90;0.60;;;;;;;;;;5080529;28;20363;-76
2021/12/15 11:37:46;;;;;;;3.50;1.30;;;;;;;;;;5077384;28;20248;-71
2021/12/15 11:40:13;;;;;;;1.90;1.70;;;;;;;;;;5080801;28;20574;-73
2021/12/15 11:42:41;;;;;;;2.93;2.33;;;;;;;;;;5076187;28;20210;-78
2021/12/15 11:45:10;;;;;;;0.47;0.47;;;;;;;;;;5079090;28;20202;-76
2021/12/15 11:47:38;;;;;;;1.43;1.33;;;;;;;;;;5071963;28;20654;-78
2021/12/15 11:50:11;;;;;;;0.33;0.33;;;;;;;;;;5072109;28;20230;-77
2021/12/15 11:52:40;;;;;;;0.90;0.90;;;;;;;;;;5071128;28;20202;-77
2021/12/15 11:55:08;;;;;;;0.67;0.67;;;;;;;;;;5075772;28;20190;-77
2021/12/15 11:57:36;;;;;;;1.50;0.43;;;;;;;;;;5075946;28;20209;-76
2021/12/15 12:00:09;;;;;;;2.20;0.93;;;;;;;;;;5072743;28;20287;-75
2021/12/15 12:02:38;;;;;;;1.27;1.27;;;;;;;;;;5069107;28;20221;-77
2021/12/15 12:05:07;;;;;;;0.00;0.00;;;;;;;;;;5069477;28;20696;-78
2021/12/15 12:07:37;;;;;;;0.57;0.57;;;;;;;;;;5073255;28;20694;-73
2021/12/15 12:10:06;;;;;;;1.63;1.53;;;;;;;;;;5071797;28;20225;-78
2021/12/15 12:12:39;;;;;;;0.63;0.63;;;;;;;;;;5072774;28;20195;-78
2021/12/15 12:15:08;;;;;;;0.90;0.90;;;;;;;;;;5074561;28;20195;-78
2021/12/15 12:17:37;;;;;;;0.40;0.40;;;;;;;;;;5070890;28;20202;-77
2021/12/15 12:20:07;;;;;;;1.93;1.60;;;;;;;;;;5071593;28;20213;-77
2021/12/15 12:22:36;;;;;;;2.20;1.97;;;;;;;;;;5069757;28;20198;-79
2021/12/15 12:25:08;;;;;;;2.33;2.10;;;;;;;;;;5067437;28;20195;-73
2021/12/15 12:27:36;;;;;;;0.73;0.73;;;;;;;;;;5071274;28;20600;-75
2021/12/15 12:30:05;;;;;;;0.47;0.47;;;;;;;;;;5081667;28;20226;-78
2021/12/15 12:32:33;;;;;;;0.60;0.60;;;;;;;;;;5090960;28;20681;-78
2021/12/15 12:35:00;;;;;;;0.50;0.20;;;;;;;;;;5084413;28;20198;-76
2021/12/15 12:37:28;;;;;;;1.20;1.10;;;;;;;;;;5084794;28;20205;-77
2021/12/15 12:39:59;;;;;;;1.80;0.60;;;;;;;;;;5096760;28;20290;-77
2021/12/15 12:42:31;;;;;;;2.00;1.80;;;;;;;;;;5090515;28;20206;-77
2021/12/15 12:45:09;;;;;;;0.70;0.70;;;;;;;;;;5088034;28;20204;-74
2021/12/15 12:47:42;;;;;;;0.10;0.10;;;;;;;;;;5083497;28;20280;-77
2021/12/15 12:50:36;;;;;;;0.10;0.10;;;;;;;;;;5080279;28;20273;-76
2021/12/15 13:01:35;;;;;;;0.30;0.30;;;;;;;;;;5076134;28;20271;-74
2021/12/15 13:04:09;;;;;;;0.00;0.00;;;;;;;;;;5073869;28;20198;-77
2021/12/15 13:06:41;;;;;;;0.83;0.83;;;;;;;;;;5074724;28;20618;-77
2021/12/15 13:09:10;;;;;;;0.43;0.43;;;;;;;;;;5075386;28;20329;-75
2021/12/15 13:11:41;;;;;;;0.37;0.37;;;;;;;;;;5073504;28;20249;-78
2021/12/15 13:14:10;;;;;;;0.30;0.30;;;;;;;;;;5072217;28;20206;-75
2021/12/15 13:16:40;;;;;;;0.87;0.87;;;;;;;;;;5072284;28;20190;-75
2021/12/15 13:19:15;;;;;;;0.63;0.27;;;;;;;;;;5072185;28;20206;-78
2021/12/15 13:21:46;;;;;;;1.50;1.40;;;;;;;;;;5074313;28;20194;-75
2021/12/15 13:28:40;;;;;;;0.90;0.90;;;;;;;;;;5070500;28;21664;-78
2021/12/15 13:30:06;;;;;;;0.00;0.00;;;;;;;;;;5069674;28;20258;-75
2021/12/15 13:32:38;;;;;;;0.83;0.83;;;;;;;;;;5077718;28;20199;-75
2021/12/15 13:35:06;;;;;;;0.97;0.97;;;;;;;;;;5079588;28;20712;-77
2021/12/15 13:37:57;;;;;;;4.07;3.00;;;;;;;;;;5078933;28;20686;-77
2021/12/15 13:40:43;;;;;;;4.10;3.80;;;;;;;;;;5063686;28;20297;-76
2021/12/15 13:43:26;;;;;;;0.73;0.73;;;;;;;;;;5069982;28;20683;-78
2021/12/15 13:45:54;;;;;;;1.03;0.83;;;;;;;;;;5077934;28;20202;-78
2021/12/15 13:48:37;;;;;;;0.60;0.60;;;;;;;;;;5073820;28;20187;-76
2021/12/15 13:51:04;;;;;;;1.87;1.07;;;;;;;;;;5077191;28;20230;-78
2021/12/15 13:53:33;;;;;;;1.33;1.13;;;;;;;;;;5075198;28;20202;-80
2021/12/15 13:56:00;;;;;;;4.23;0.87;;;;;;;;;;5069613;28;20194;-76
2021/12/15 13:58:32;;;;;;;3.80;2.50;;;;;;;;;;5068399;28;20282;-77
2021/12/15 14:01:03;;;;;;;0.87;0.53;;;;;;;;;;5075771;28;20596;-76
2021/12/15 14:03:32;;;;;;;1.13;1.13;;;;;;;;;;5074961;28;20588;-78
2021/12/15 14:06:08;;;;;;;1.23;0.87;;;;;;;;;;5070586;28;20206;-77
2021/12/15 14:08:38;;;;;;;1.07;0.97;;;;;;;;;;5071138;28;20671;-78
2021/12/15 14:11:08;;;;;;;0.30;0.20;;;;;;;;;;5072317;28;20763;-77
2021/12/15 14:13:53;;;;;;;1.03;1.03;;;;;;;;;;5072176;28;20202;-77
2021/12/15 14:16:33;;;;;;;1.37;0.97;;;;;;;;;;5074031;28;20206;-76
2021/12/15 14:19:02;;;;;;;1.63;1.53;;;;;;;;;;5071287;28;20206;-74
2021/12/15 14:21:31;;;;;;;0.97;0.97;;;;;;;;;;5070101;28;20797;-78
2021/12/15 14:23:59;;;;;;;0.77;0.77;;;;;;;;;;5072402;28;20840;-72
2021/12/15 14:26:28;;;;;;;1.43;1.13;;;;;;;;;;5071824;28;20217;-79
2021/12/15 14:28:56;;;;;;;3.87;2.73;;;;;;;;;;5068621;28;20663;-77
2021/12/15 14:31:25;;;;;;;0.63;0.63;;;;;;;;;;5078357;28;20295;-77
2021/12/15 14:33:55;;;;;;;2.67;1.47;;;;;;;;;;5081044;28;20218;-76
2021/12/15 14:36:23;;;;;;;2.50;1.03;;;;;;;;;;5082299;28;20208;-77
2021/12/15 14:38:52;;;;;;;1.63;1.53;;;;;;;;;;5082053;28;20210;-76
2021/12/15 14:41:20;;;;;;;2.37;2.17;;;;;;;;;;5081833;28;20252;-77
2021/12/15 14:43:50;;;;;;;0.90;0.73;;;;;;;;;;5082739;28;20213;-76
2021/12/15 14:46:19;;;;;;;0.30;0.30;;;;;;;;;;5081742;28;20206;-76
2021/12/15 14:48:46;;;;;;;3.47;1.43;;;;;;;;;;5082899;28;20734;-75
2021/12/15 14:51:24;;;;;;;1.47;1.37;;;;;;;;;;5082117;28;20226;-71
2021/12/15 14:53:52;;;;;;;1.97;1.87;;;;;;;;;;5080681;28;20202;-72
2021/12/15 14:56:19;;;;;;;0.83;0.63;;;;;;;;;;5080072;28;20199;-72
2021/12/15 14:58:46;;;;;;;1.20;0.27;;;;;;;;;;5079478;28;20202;-69
2021/12/15 15:01:16;;;;;;;2.23;1.87;;;;;;;;;;5074949;28;20702;-72
2021/12/15 15:03:57;;;;;;;1.07;1.07;;;;;;;;;;5068967;28;20213;-72
2021/12/15 15:06:27;;;;;;;0.00;0.00;;;;;;;;;;5069379;28;20322;-71
2021/12/15 15:08:54;;;;;;;1.67;1.57;;;;;;;;;;5071271;28;20214;-78
2021/12/15 15:11:24;;;;;;;0.53;0.47;;;;;;;;;;5068683;28;20232;-72
2021/12/15 15:13:52;;;;;;;1.90;1.17;;;;;;;;;;5068755;28;20237;-77
2021/12/15 15:16:23;;;;;;;1.43;1.33;;;;;;;;;;5074959;28;20198;-76
2021/12/15 15:18:51;;;;;;;0.73;0.73;;;;;;;;;;5069321;28;20212;-71
2021/12/15 15:21:19;;;;;;;2.63;1.60;;;;;;;;;;5071098;28;20206;-75
2021/12/15 15:23:49;;;;;;;0.23;0.23;;;;;;;;;;5072752;28;20195;-73
2021/12/15 15:26:17;;;;;;;0.93;0.93;;;;;;;;;;5084238;28;20312;-72
2021/12/15 15:28:49;;;;;;;0.53;0.53;;;;;;;;;;5081658;28;20194;-74
2021/12/15 15:31:19;;;;;;;0.10;0.10;;;;;;;;;;5078752;28;20226;-71
2021/12/15 15:33:47;;;;;;;1.57;1.10;;;;;;;;;;5080034;28;20209;-71
2021/12/15 15:36:16;;;;;;;1.47;1.37;;;;;;;;;;5085207;28;20210;-73
2021/12/15 15:38:45;;;;;;;0.20;0.20;;;;;;;;;;5097200;28;20275;-72
2021/12/15 15:41:16;;;;;;;0.30;0.30;;;;;;;;;;5086152;28;20194;-73
2021/12/15 15:43:45;;;;;;;0.53;0.53;;;;;;;;;;5084403;28;20571;-69
2021/12/15 15:46:17;;;;;;;0.53;0.53;;;;;;;;;;5081626;28;20194;-70
2021/12/15 15:48:45;;;;;;;0.10;0.10;;;;;;;;;;5084450;28;20201;-75
2021/12/15 15:51:14;;;;;;;0.37;0.37;;;;;;;;;;5081396;28;20304;-74
2021/12/15 15:53:42;;;;;;;0.10;0.10;;;;;;;;;;5080191;28;20230;-73
2021/12/15 15:56:13;;;;;;;0.47;0.47;;;;;;;;;;5078732;28;20194;-72
2021/12/15 15:58:43;;;;;;;0.30;0.30;;;;;;;;;;5081661;28;20753;-74
2021/12/15 16:01:11;;;;;;;0.90;0.90;;;;;;;;;;5080584;28;20226;-72
2021/12/15 16:03:39;;;;;;;0.87;0.80;;;;;;;;;;5081095;28;20555;-71
2021/12/15 16:06:08;;;;;;;0.00;0.00;;;;;;;;;;5079296;28;20205;-73